Historyczne dane pomiarowe

Dodano dane terminowe – wersja testowa.

Dane z okresu 1951-2019

Wersja bazy: 1.34 [2019-03-16, lista zmian], aktualizacja planowana na 2019-04-15

Dane meteo z obszaru Polski uzyskane na podstawie danych udostępnionych przez Instytut Meteorologii i Gospodarki Wodnej – Państwowy Instytut Badawczy.

 

Wybierz Datę:    

       

TemperaturaWilgotnośćWiatrCiśnienieOpadyŚniegCzas trwania zjawisk
 Stacja t tx tn tng RH VA  wxwx mslp ppp RRR   cm mm wxwxwxwxwxwxwx
1994-08-14 14.7 20.9-- 80.8- 6.0 0.7---- 0.0------------
1994-08-13 16.0 21.5 10.7- 87.8- 6.7 1.0---- 0.8------------
1994-08-12 15.2 20.8 9.6- 92.3- 6.3 0.0---- 1.5------------
1994-08-11 19.0 28.5 9.7- 84.5- 7.3 0.0---- 14.0------------
1994-08-10 19.9 27.0 13.9- 79.3- 3.3 0.3---- 0.0------------
1994-08-09 19.6 27.5 11.8- 83.3- 7.0 1.0---- 0.0------------
1994-08-08 19.8 29.5 14.3- 87.3- 5.0 0.0---- 8.8------------
1994-08-07 20.1 29.5 10.7- 82.8- 5.0 0.3---- 0.0------------
1994-08-06 18.8 30.5 6.3- 79.3- 1.3 0.7---- 0.0------------
1994-08-05 20.2 28.5 10.2- 73.0- 1.3 0.7---- 0.0------------
1994-08-04 20.4 27.5 14.1- 78.8- 5.7 1.0---- 0.0------------
1994-08-03 19.5 30.5 9.7- 84.5- 5.0 0.7---- 24.0------------
1994-08-02 21.3 32.0 8.2- 63.8- 1.0 0.7---- 0.0------------
1994-08-01 21.8 31.6 9.7- 72.0- 3.0 0.7---- 0.0------------
1994-07-31 21.2 32.1 8.7- 73.3- 1.0 0.3---- 0.0------------
1994-07-30 19.8 31.4 7.7- 70.5- 1.0 0.3---- 0.0------------
1994-07-29 19.4 31.5 6.7- 68.5- 0.3 0.3---- 0.0------------
1994-07-28 19.0 31.0 7.6- 68.8- 0.3 0.3---- 0.0------------
1994-07-27 19.6 30.8 7.3- 70.8- 1.7 0.3---- 0.0------------
1994-07-26 19.6 30.2 7.3- 71.5- 2.7 0.0---- 0.0------------
1994-07-25 19.6 28.8 7.3- 69.3- 3.0 0.0---- 0.0------------
1994-07-24 19.5 28.0 6.3- 68.3- 1.0 0.7---- 0.0------------
1994-07-23 18.2 27.2 4.8- 68.0- 0.7 0.3---- 0.0------------
1994-07-22 17.0 26.5 4.7- 66.5- 0.7 0.3---- 0.0------------
1994-07-21 16.4 25.2 3.4- 68.3- 0.0 0.3---- 0.0------------
1994-07-20 16.4 23.5 6.5- 68.5- 3.7 0.7---- 0.0------------
1994-07-19 18.3 24.5 10.4- 77.5- 6.3 0.7---- 0.0------------
1994-07-18 19.5 25.6 14.1- 82.3- 5.3 2.0---- 0.0------------
1994-07-17 20.0 28.0 10.4- 88.0- 4.0 0.0---- 1.4------------
1994-07-16 20.2 29.0 8.8- 75.0- 3.7 0.7---- 0.0------------
1994-07-15 19.4 26.0 10.7- 81.3- 5.3 0.0---- 0.0------------
1994-07-14 18.5 26.6 7.7- 74.3- 5.7 1.3---- 0.0------------
1994-07-13 19.2 25.2 9.0- 71.5- 3.7 1.3---- 0.0------------
1994-07-12 19.3 25.0 14.8- 74.5- 4.7 0.0---- 0.0------------
1994-07-11 15.6 19.5 9.2- 91.0- 8.0 1.7---- 0.4------------
1994-07-10 14.2 19.4 7.7- 88.8- 6.7 0.3---- 0.4------------
1994-07-09 13.2 20.4 4.6- 84.0- 8.0 0.3---- 5.0------------
1994-07-08 16.2 21.5 13.3- 88.5- 7.3 0.3---- 6.7------------
1994-07-07 16.9- 4.8- 74.8- 4.3 1.0---- 2.5------------
1994-07-06 19.0- 5.8- 65.0- 0.3 0.7---- 0.0------------
1994-07-05 17.6- 5.8- 76.5- 4.7 0.0---- 0.0------------
1994-07-04 17.5- 3.9- 69.0- 0.7 0.7---- 0.0------------
1994-07-03 16.9- 4.2- 67.3- 0.0 1.0---- 0.0------------
1994-07-02 17.0- 5.2- 66.0- 0.0 0.7---- 0.0------------
1994-07-01 19.4- 15.3- 70.3- 4.0 1.0---- 0.0------------
1994-06-30 21.9 29.0 12.7- 81.8- 5.3 1.0---- 0.0------------
1994-06-29 22.4 30.5 10.7- 73.3- 2.7 0.7---- 0.0------------
1994-06-28 21.1 28.5 12.2- 79.5- 1.7 0.7---- 0.0------------
1994-06-27 22.6 28.5 11.6- 66.8- 1.0 1.0---- 0.0------------
1994-06-26 16.9 25.0 2.0- 68.0- 0.0 1.7---- 0.0------------
1994-06-25 12.0 21.5 -0.5- 70.5- 0.0 0.7---- 0.0------------
1994-06-24 13.1 20.0 0.5- 62.0- 0.0 1.7---- 0.0------------
1994-06-23 16.4 21.1 12.2- 68.3- 4.0 1.3---- 0.0------------
1994-06-22 16.1 24.0 1.9- 71.5- 2.7 0.7---- 0.0------------
1994-06-21 14.1 19.0 4.5- 66.8- 0.7 1.3---- 0.0------------
1994-06-20 16.5 21.4 9.4- 79.3- 3.3 1.0---- 0.0------------
1994-06-19 14.7 20.0 9.2- 82.3- 4.0 1.3---- 0.0------------
1994-06-18 9.9 16.5 -1.0- 81.3- 4.0 1.7---- 6.4------------
1994-06-17 9.8 15.0 4.8- 79.5- 6.0 1.7---- 0.6------------
1994-06-16 12.3 19.0 1.6- 80.3- 5.0 1.0---- 2.0------------
218.2 ms

 

Źródłem pochodzenia danych jest Instytut Meteorologii i Gospodarki Wodnej – Państwowy Instytut Badawczy. Dane Instytutu Meteorologii i Gospodarki Wodnej – Państwowego Instytutu Badawczego zostały przetworzone.

Dane źródłowe można odnaleźć na stronie https://dane.imgw.pl